BAW380 EGLL-LATI
Flight info
| Callsign | BAW380 |
|---|---|
| Flight time | 2h 46m |
| Altitude | 37000 |
| Route | DET1J DET L6 DVR L9 KONAN UL607 KOK DCT SISGA DCT RITAX DCT KRH DCT UTABA DCT BEMKI DCT ELMEM DCT DIRAB DCT RASUG DCT OKLAX DCT SIPAL DCT TIKSA DCT BALHA DCT MOKUN DCT TIBRI DCT PETAK PETAK3M |
| Aircraft | A320/M-SDE3FGHIJ1RWXY/S |
Departure
| Time | 2026-05-06 15:07 |
|---|---|
| Airport | London Heathrow Airport (EGLL) |
Arrival
| Time | 2026-05-06 17:53 |
|---|---|
| Airport | Tirana International Airport Mother Teresa (LATI) |
| Time | Latitude | Longitude | Altitude | Speed | Heading |
|---|---|---|---|---|---|
| 2026-05-06 14:00 | 51.46844 | -0.44881 | 90 ft | 0 kts | 359° |
| 2026-05-06 14:47 | 51.46826 | -0.44881 | 90 ft | 4 kts | 358° |
| 2026-05-06 14:47 | 51.46800 | -0.44878 | 91 ft | 4 kts | 352° |
| 2026-05-06 14:48 | 51.46773 | -0.44869 | 92 ft | 4 kts | 337° |
| 2026-05-06 14:48 | 51.46755 | -0.44848 | 94 ft | 4 kts | 283° |
| 2026-05-06 14:48 | 51.46753 | -0.44839 | 93 ft | 1 kts | 268° |
| 2026-05-06 14:53 | 51.46753 | -0.44843 | 94 ft | 1 kts | 268° |
| 2026-05-06 14:53 | 51.46753 | -0.44877 | 92 ft | 5 kts | 268° |
| 2026-05-06 14:53 | 51.46751 | -0.44962 | 92 ft | 10 kts | 269° |
| 2026-05-06 14:53 | 51.46750 | -0.45108 | 91 ft | 15 kts | 270° |
| 2026-05-06 14:54 | 51.46750 | -0.45288 | 91 ft | 17 kts | 270° |
| 2026-05-06 14:54 | 51.46748 | -0.45505 | 87 ft | 22 kts | 269° |
| 2026-05-06 14:54 | 51.46748 | -0.45763 | 91 ft | 23 kts | 271° |
| 2026-05-06 14:54 | 51.46748 | -0.46037 | 86 ft | 26 kts | 269° |
| 2026-05-06 14:55 | 51.46746 | -0.46322 | 94 ft | 25 kts | 269° |
| 2026-05-06 14:55 | 51.46747 | -0.46614 | 92 ft | 27 kts | 270° |
| 2026-05-06 14:55 | 51.46747 | -0.46919 | 92 ft | 29 kts | 268° |
| 2026-05-06 14:55 | 51.46742 | -0.47259 | 88 ft | 31 kts | 270° |
| 2026-05-06 14:56 | 51.46744 | -0.47624 | 85 ft | 34 kts | 270° |
| 2026-05-06 14:56 | 51.46747 | -0.47993 | 90 ft | 33 kts | 272° |
| 2026-05-06 14:56 | 51.46749 | -0.48149 | 91 ft | 0 kts | 268° |
| 2026-05-06 14:59 | 51.46748 | -0.48163 | 92 ft | 6 kts | 263° |
| 2026-05-06 14:59 | 51.46742 | -0.48281 | 94 ft | 12 kts | 268° |
| 2026-05-06 14:59 | 51.46741 | -0.48430 | 93 ft | 15 kts | 270° |
| 2026-05-06 15:00 | 51.46737 | -0.48621 | 92 ft | 19 kts | 268° |
| 2026-05-06 15:00 | 51.46682 | -0.48746 | 93 ft | 14 kts | 186° |
| 2026-05-06 15:00 | 51.46613 | -0.48761 | 93 ft | 5 kts | 194° |
| 2026-05-06 15:00 | 51.46600 | -0.48766 | 92 ft | 0 kts | 195° |
| 2026-05-06 15:05 | 51.46587 | -0.48772 | 92 ft | 5 kts | 195° |
| 2026-05-06 15:05 | 51.46538 | -0.48784 | 93 ft | 9 kts | 177° |
| 2026-05-06 15:05 | 51.46485 | -0.48725 | 93 ft | 10 kts | 119° |
| 2026-05-06 15:06 | 51.46478 | -0.48602 | 95 ft | 14 kts | 89° |
| 2026-05-06 15:06 | 51.46481 | -0.48154 | 92 ft | 74 kts | 89° |
| 2026-05-06 15:06 | 51.46488 | -0.47009 | 92 ft | 128 kts | 89° |
| 2026-05-06 15:06 | 51.46515 | -0.45344 | 96 ft | 169 kts | 85° |
| 2026-05-06 15:07 | 51.46512 | -0.43462 | 636 ft | 168 kts | 88° |
| 2026-05-06 15:07 | 51.46418 | -0.41562 | 1285 ft | 173 kts | 103° |
| 2026-05-06 15:07 | 51.45756 | -0.39812 | 1583 ft | 199 kts | 127° |
| 2026-05-06 15:07 | 51.44807 | -0.38024 | 1897 ft | 222 kts | 126° |
| 2026-05-06 15:08 | 51.43937 | -0.35847 | 2249 ft | 242 kts | 109° |
| 2026-05-06 15:08 | 51.43472 | -0.33200 | 2867 ft | 251 kts | 98° |
| 2026-05-06 15:08 | 51.43085 | -0.30437 | 3681 ft | 257 kts | 99° |
| 2026-05-06 15:08 | 51.42680 | -0.27607 | 4525 ft | 264 kts | 99° |
| 2026-05-06 15:09 | 51.42278 | -0.24730 | 5351 ft | 271 kts | 99° |
| 2026-05-06 15:09 | 51.41870 | -0.21751 | 6155 ft | 277 kts | 99° |
| 2026-05-06 15:09 | 51.41455 | -0.18705 | 6906 ft | 283 kts | 99° |
| 2026-05-06 15:09 | 51.41032 | -0.15609 | 7685 ft | 286 kts | 100° |
| 2026-05-06 15:10 | 51.40603 | -0.12481 | 8499 ft | 289 kts | 100° |
| 2026-05-06 15:10 | 51.40167 | -0.09329 | 9304 ft | 292 kts | 100° |
| 2026-05-06 15:10 | 51.39725 | -0.06143 | 10084 ft | 295 kts | 100° |
| 2026-05-06 15:10 | 51.39268 | -0.02846 | 10418 ft | 314 kts | 101° |
| 2026-05-06 15:11 | 51.38779 | 0.00682 | 10668 ft | 333 kts | 101° |
| 2026-05-06 15:11 | 51.38269 | 0.04346 | 11212 ft | 340 kts | 101° |
| 2026-05-06 15:11 | 51.37749 | 0.08062 | 11863 ft | 344 kts | 101° |
| 2026-05-06 15:11 | 51.37222 | 0.11814 | 12554 ft | 347 kts | 102° |
| 2026-05-06 15:12 | 51.36686 | 0.15602 | 13193 ft | 352 kts | 102° |
| 2026-05-06 15:12 | 51.36143 | 0.19453 | 13828 ft | 356 kts | 102° |
| 2026-05-06 15:12 | 51.35599 | 0.23332 | 14431 ft | 359 kts | 102° |
| 2026-05-06 15:12 | 51.35049 | 0.27248 | 14999 ft | 363 kts | 102° |
| 2026-05-06 15:13 | 51.34490 | 0.31206 | 15521 ft | 368 kts | 102° |
| 2026-05-06 15:13 | 51.33920 | 0.35212 | 16088 ft | 371 kts | 102° |
| 2026-05-06 15:13 | 51.33343 | 0.39242 | 16687 ft | 373 kts | 102° |
| 2026-05-06 15:13 | 51.32758 | 0.43305 | 17333 ft | 377 kts | 102° |
| 2026-05-06 15:14 | 51.32168 | 0.47412 | 17854 ft | 381 kts | 102° |
| 2026-05-06 15:14 | 51.31573 | 0.51553 | 18462 ft | 383 kts | 102° |
| 2026-05-06 15:14 | 51.30972 | 0.55710 | 19045 ft | 385 kts | 102° |
| 2026-05-06 15:14 | 51.30367 | 0.59890 | 19533 ft | 389 kts | 103° |
| 2026-05-06 15:15 | 51.29694 | 0.64089 | 20078 ft | 391 kts | 105° |
| 2026-05-06 15:15 | 51.28948 | 0.68279 | 20633 ft | 393 kts | 107° |
| 2026-05-06 15:15 | 51.28162 | 0.72467 | 21158 ft | 395 kts | 107° |
| 2026-05-06 15:15 | 51.27356 | 0.76679 | 21625 ft | 399 kts | 108° |
| 2026-05-06 15:16 | 51.26546 | 0.80923 | 22091 ft | 401 kts | 107° |
| 2026-05-06 15:16 | 51.25738 | 0.85193 | 22639 ft | 402 kts | 108° |
| 2026-05-06 15:16 | 51.24935 | 0.89492 | 23132 ft | 406 kts | 108° |
| 2026-05-06 15:16 | 51.24133 | 0.93821 | 23608 ft | 409 kts | 108° |
| 2026-05-06 15:17 | 51.23327 | 0.98182 | 24051 ft | 410 kts | 107° |
| 2026-05-06 15:17 | 51.22522 | 1.02538 | 24508 ft | 411 kts | 107° |
| 2026-05-06 15:17 | 51.21709 | 1.06920 | 24903 ft | 413 kts | 107° |
| 2026-05-06 15:17 | 51.20891 | 1.11319 | 25299 ft | 415 kts | 107° |
| 2026-05-06 15:18 | 51.20065 | 1.15740 | 25696 ft | 417 kts | 107° |
| 2026-05-06 15:18 | 51.19232 | 1.20175 | 26067 ft | 419 kts | 108° |
| 2026-05-06 15:18 | 51.18389 | 1.24647 | 26417 ft | 422 kts | 107° |
| 2026-05-06 15:18 | 51.17542 | 1.29134 | 26792 ft | 424 kts | 107° |
| 2026-05-06 15:19 | 51.16701 | 1.33644 | 27156 ft | 426 kts | 105° |
| 2026-05-06 15:19 | 51.16158 | 1.38298 | 27484 ft | 429 kts | 96° |
| 2026-05-06 15:19 | 51.15932 | 1.43053 | 27825 ft | 432 kts | 94° |
| 2026-05-06 15:19 | 51.15710 | 1.47821 | 28240 ft | 432 kts | 95° |
| 2026-05-06 15:20 | 51.15481 | 1.52601 | 28610 ft | 434 kts | 95° |
| 2026-05-06 15:20 | 51.15244 | 1.57398 | 28960 ft | 435 kts | 95° |
| 2026-05-06 15:20 | 51.15003 | 1.62215 | 29311 ft | 437 kts | 95° |
| 2026-05-06 15:20 | 51.14761 | 1.67046 | 29643 ft | 439 kts | 95° |
| 2026-05-06 15:21 | 51.14519 | 1.71903 | 29981 ft | 441 kts | 95° |
| 2026-05-06 15:21 | 51.14274 | 1.76787 | 30264 ft | 443 kts | 95° |
| 2026-05-06 15:21 | 51.14024 | 1.81679 | 30538 ft | 445 kts | 95° |
| 2026-05-06 15:21 | 51.13770 | 1.86591 | 30828 ft | 447 kts | 95° |
| 2026-05-06 15:22 | 51.13513 | 1.91531 | 31080 ft | 448 kts | 95° |
| 2026-05-06 15:22 | 51.13252 | 1.96475 | 31365 ft | 447 kts | 95° |
| 2026-05-06 15:22 | 51.13000 | 2.01316 | 31011 ft | 443 kts | 95° |
| 2026-05-06 15:22 | 51.12747 | 2.06189 | 30891 ft | 442 kts | 95° |
| 2026-05-06 15:23 | 51.12492 | 2.11065 | 30924 ft | 443 kts | 95° |
| 2026-05-06 15:23 | 51.11971 | 2.20842 | 30945 ft | 443 kts | 95° |
| 2026-05-06 15:23 | 51.11703 | 2.25732 | 31194 ft | 444 kts | 95° |
| 2026-05-06 15:24 | 51.11431 | 2.30643 | 31443 ft | 447 kts | 95° |
| 2026-05-06 15:24 | 51.11157 | 2.35572 | 31702 ft | 448 kts | 95° |
| 2026-05-06 15:24 | 51.10883 | 2.40517 | 31876 ft | 448 kts | 95° |
| 2026-05-06 15:25 | 51.10322 | 2.50366 | 31908 ft | 447 kts | 95° |
| 2026-05-06 15:25 | 51.09729 | 2.60192 | 31909 ft | 446 kts | 98° |
| 2026-05-06 15:26 | 51.07984 | 2.69617 | 31901 ft | 445 kts | 116° |
| 2026-05-06 15:26 | 51.06548 | 2.73988 | 32159 ft | 446 kts | 118° |
| 2026-05-06 15:26 | 51.05096 | 2.78333 | 32532 ft | 445 kts | 118° |
| 2026-05-06 15:26 | 51.03653 | 2.82679 | 32909 ft | 445 kts | 118° |
| 2026-05-06 15:27 | 51.02213 | 2.87029 | 33279 ft | 444 kts | 117° |
| 2026-05-06 15:27 | 51.00779 | 2.91358 | 33657 ft | 443 kts | 117° |
| 2026-05-06 15:27 | 50.99342 | 2.95684 | 33989 ft | 443 kts | 117° |
| 2026-05-06 15:27 | 50.97903 | 3.00000 | 34262 ft | 443 kts | 118° |
| 2026-05-06 15:28 | 50.96459 | 3.04317 | 34527 ft | 443 kts | 118° |
| 2026-05-06 15:28 | 50.95011 | 3.08637 | 34785 ft | 444 kts | 118° |
| 2026-05-06 15:28 | 50.93562 | 3.12948 | 35041 ft | 444 kts | 118° |
| 2026-05-06 15:28 | 50.92108 | 3.17271 | 35290 ft | 444 kts | 118° |
| 2026-05-06 15:29 | 50.90655 | 3.21592 | 35535 ft | 445 kts | 118° |
| 2026-05-06 15:29 | 50.89200 | 3.25912 | 35753 ft | 445 kts | 119° |
| 2026-05-06 15:29 | 50.87737 | 3.30238 | 35867 ft | 445 kts | 119° |
| 2026-05-06 15:30 | 50.84809 | 3.38845 | 35888 ft | 444 kts | 119° |
| 2026-05-06 15:30 | 50.81885 | 3.47428 | 35890 ft | 444 kts | 119° |
| 2026-05-06 15:31 | 50.78952 | 3.56018 | 35889 ft | 444 kts | 119° |
| 2026-05-06 15:31 | 50.76016 | 3.64599 | 35888 ft | 444 kts | 119° |
| 2026-05-06 15:32 | 50.71597 | 3.77446 | 35880 ft | 444 kts | 120° |
| 2026-05-06 15:32 | 50.68639 | 3.85990 | 35892 ft | 444 kts | 120° |
| 2026-05-06 15:33 | 50.65701 | 3.94461 | 35887 ft | 443 kts | 120° |
| 2026-05-06 15:33 | 50.62743 | 4.02969 | 35887 ft | 443 kts | 120° |
| 2026-05-06 15:34 | 50.59874 | 4.11613 | 35874 ft | 443 kts | 117° |
| 2026-05-06 15:34 | 50.57286 | 4.20427 | 35879 ft | 443 kts | 115° |
| 2026-05-06 15:35 | 50.55174 | 4.27766 | 35879 ft | 443 kts | 116° |
| 2026-05-06 15:35 | 50.52577 | 4.36557 | 35882 ft | 443 kts | 116° |
| 2026-05-06 15:36 | 50.49928 | 4.45303 | 35888 ft | 444 kts | 117° |
| 2026-05-06 15:36 | 50.47263 | 4.54043 | 35885 ft | 443 kts | 117° |
| 2026-05-06 15:37 | 50.44603 | 4.62767 | 35878 ft | 443 kts | 117° |
| 2026-05-06 15:37 | 50.41939 | 4.71465 | 35841 ft | 442 kts | 117° |
| 2026-05-06 15:38 | 50.39272 | 4.80163 | 35844 ft | 443 kts | 117° |
| 2026-05-06 15:38 | 50.36600 | 4.88860 | 35845 ft | 443 kts | 117° |
| 2026-05-06 15:39 | 50.33915 | 4.97555 | 35848 ft | 444 kts | 117° |
| 2026-05-06 15:39 | 50.31225 | 5.06255 | 35842 ft | 444 kts | 117° |
| 2026-05-06 15:40 | 50.28527 | 5.14943 | 35842 ft | 444 kts | 118° |
| 2026-05-06 15:40 | 50.25823 | 5.23617 | 35842 ft | 444 kts | 118° |
| 2026-05-06 15:41 | 50.23131 | 5.32219 | 35842 ft | 444 kts | 118° |
| 2026-05-06 15:41 | 50.20412 | 5.40865 | 35841 ft | 444 kts | 118° |
| 2026-05-06 15:42 | 50.17688 | 5.49515 | 35842 ft | 444 kts | 118° |
| 2026-05-06 15:42 | 50.14965 | 5.58148 | 35832 ft | 443 kts | 118° |
| 2026-05-06 15:43 | 50.12228 | 5.66762 | 35830 ft | 443 kts | 118° |
| 2026-05-06 15:43 | 50.09484 | 5.75366 | 35820 ft | 443 kts | 118° |
| 2026-05-06 15:44 | 50.06684 | 5.83907 | 35822 ft | 442 kts | 121° |
| 2026-05-06 15:44 | 50.03633 | 5.92215 | 35814 ft | 442 kts | 123° |
| 2026-05-06 15:45 | 50.00476 | 6.00420 | 35797 ft | 442 kts | 123° |
| 2026-05-06 15:45 | 49.97351 | 6.08646 | 35796 ft | 443 kts | 122° |
| 2026-05-06 15:46 | 49.94252 | 6.16909 | 35797 ft | 443 kts | 122° |
| 2026-05-06 15:46 | 49.91158 | 6.25192 | 35788 ft | 444 kts | 122° |
| 2026-05-06 15:47 | 49.88051 | 6.33457 | 35791 ft | 444 kts | 123° |
| 2026-05-06 15:47 | 49.84929 | 6.41705 | 35764 ft | 443 kts | 123° |
| 2026-05-06 15:48 | 49.81826 | 6.49870 | 35771 ft | 443 kts | 123° |
| 2026-05-06 15:48 | 49.78699 | 6.58081 | 35757 ft | 442 kts | 123° |
| 2026-05-06 15:49 | 49.75565 | 6.66260 | 35756 ft | 442 kts | 123° |
| 2026-05-06 15:49 | 49.72428 | 6.74442 | 35760 ft | 442 kts | 123° |
| 2026-05-06 15:50 | 49.69288 | 6.82626 | 35747 ft | 443 kts | 123° |
| 2026-05-06 15:50 | 49.66141 | 6.90799 | 35763 ft | 443 kts | 124° |
| 2026-05-06 15:51 | 49.62981 | 6.98958 | 35769 ft | 443 kts | 124° |
| 2026-05-06 15:51 | 49.59810 | 7.07110 | 35774 ft | 443 kts | 124° |
| 2026-05-06 15:52 | 49.56643 | 7.15261 | 35782 ft | 443 kts | 124° |
| 2026-05-06 15:52 | 49.53470 | 7.23394 | 35766 ft | 443 kts | 124° |
| 2026-05-06 15:53 | 49.50280 | 7.31523 | 35772 ft | 444 kts | 125° |
| 2026-05-06 15:53 | 49.47087 | 7.39648 | 35782 ft | 444 kts | 125° |
| 2026-05-06 15:54 | 49.43894 | 7.47764 | 35788 ft | 443 kts | 125° |
| 2026-05-06 15:54 | 49.40720 | 7.55798 | 35797 ft | 443 kts | 125° |
| 2026-05-06 15:55 | 49.37519 | 7.63876 | 35787 ft | 443 kts | 126° |
| 2026-05-06 15:55 | 49.34315 | 7.71936 | 35794 ft | 442 kts | 126° |
| 2026-05-06 15:56 | 49.31105 | 7.79979 | 35803 ft | 442 kts | 126° |
| 2026-05-06 15:56 | 49.27890 | 7.88009 | 35803 ft | 442 kts | 126° |
| 2026-05-06 15:57 | 49.24668 | 7.96019 | 35800 ft | 442 kts | 126° |
| 2026-05-06 15:57 | 49.21452 | 8.04015 | 35792 ft | 441 kts | 126° |
| 2026-05-06 15:58 | 49.18233 | 8.11995 | 35799 ft | 441 kts | 126° |
| 2026-05-06 15:58 | 49.15008 | 8.19952 | 35806 ft | 440 kts | 126° |
| 2026-05-06 15:59 | 49.11783 | 8.27898 | 35807 ft | 440 kts | 126° |
| 2026-05-06 15:59 | 49.08554 | 8.35819 | 35811 ft | 440 kts | 126° |
| 2026-05-06 16:00 | 49.05320 | 8.43740 | 35810 ft | 440 kts | 126° |
| 2026-05-06 16:00 | 49.02073 | 8.51642 | 35814 ft | 440 kts | 127° |
| 2026-05-06 16:01 | 48.98504 | 8.59107 | 35810 ft | 432 kts | 139° |
| 2026-05-06 16:01 | 48.93930 | 8.64925 | 35803 ft | 428 kts | 146° |
| 2026-05-06 16:02 | 48.89258 | 8.70541 | 35800 ft | 429 kts | 146° |
| 2026-05-06 16:02 | 48.84581 | 8.76178 | 35800 ft | 429 kts | 146° |
| 2026-05-06 16:03 | 48.79927 | 8.81764 | 35789 ft | 430 kts | 147° |
| 2026-05-06 16:03 | 48.75205 | 8.87429 | 35796 ft | 430 kts | 147° |
| 2026-05-06 16:04 | 48.70539 | 8.93018 | 35798 ft | 430 kts | 147° |
| 2026-05-06 16:04 | 48.65835 | 8.98623 | 35804 ft | 430 kts | 147° |
| 2026-05-06 16:05 | 48.61134 | 9.04210 | 35814 ft | 430 kts | 147° |
| 2026-05-06 16:05 | 48.56429 | 9.09788 | 35816 ft | 430 kts | 147° |
| 2026-05-06 16:06 | 48.51723 | 9.15359 | 35796 ft | 430 kts | 148° |
| 2026-05-06 16:06 | 48.47011 | 9.20931 | 35797 ft | 430 kts | 148° |
| 2026-05-06 16:07 | 48.42294 | 9.26490 | 35807 ft | 430 kts | 148° |
| 2026-05-06 16:07 | 48.37570 | 9.32037 | 35813 ft | 431 kts | 148° |
| 2026-05-06 16:08 | 48.32852 | 9.37573 | 35818 ft | 430 kts | 148° |
| 2026-05-06 16:08 | 48.28129 | 9.43098 | 35820 ft | 430 kts | 148° |
| 2026-05-06 16:09 | 48.23416 | 9.48632 | 35808 ft | 430 kts | 148° |
| 2026-05-06 16:09 | 48.18813 | 9.54289 | 35823 ft | 430 kts | 147° |
| 2026-05-06 16:10 | 48.14217 | 9.60032 | 35829 ft | 429 kts | 147° |
| 2026-05-06 16:10 | 48.09617 | 9.65723 | 35829 ft | 429 kts | 147° |
| 2026-05-06 16:11 | 48.04998 | 9.71371 | 35830 ft | 429 kts | 147° |
| 2026-05-06 16:11 | 48.00378 | 9.76988 | 35832 ft | 428 kts | 147° |
| 2026-05-06 16:12 | 47.95765 | 9.82606 | 35817 ft | 428 kts | 147° |
| 2026-05-06 16:12 | 47.91152 | 9.88210 | 35836 ft | 427 kts | 147° |
| 2026-05-06 16:13 | 47.86536 | 9.93799 | 35842 ft | 427 kts | 147° |
| 2026-05-06 16:13 | 47.81922 | 9.99377 | 35844 ft | 427 kts | 147° |
| 2026-05-06 16:14 | 47.77307 | 10.04952 | 35832 ft | 427 kts | 147° |
| 2026-05-06 16:14 | 47.72690 | 10.10510 | 35841 ft | 427 kts | 147° |
| 2026-05-06 16:15 | 47.68076 | 10.16034 | 35831 ft | 426 kts | 148° |
| 2026-05-06 16:15 | 47.63463 | 10.21557 | 35830 ft | 426 kts | 147° |
| 2026-05-06 16:16 | 47.58858 | 10.27068 | 35830 ft | 425 kts | 148° |
| 2026-05-06 16:16 | 47.54148 | 10.32306 | 35818 ft | 420 kts | 153° |
| 2026-05-06 16:17 | 47.49255 | 10.37054 | 35824 ft | 421 kts | 153° |
| 2026-05-06 16:17 | 47.44362 | 10.41794 | 35820 ft | 420 kts | 153° |
| 2026-05-06 16:18 | 47.39476 | 10.46531 | 35779 ft | 420 kts | 153° |
| 2026-05-06 16:18 | 47.34582 | 10.51271 | 35782 ft | 420 kts | 153° |
| 2026-05-06 16:19 | 47.29684 | 10.55992 | 35784 ft | 420 kts | 153° |
| 2026-05-06 16:19 | 47.24822 | 10.60827 | 35798 ft | 424 kts | 151° |
| 2026-05-06 16:20 | 47.20041 | 10.65911 | 35815 ft | 425 kts | 150° |
| 2026-05-06 16:20 | 47.15263 | 10.71017 | 35817 ft | 424 kts | 151° |
| 2026-05-06 16:21 | 47.10468 | 10.76063 | 35800 ft | 424 kts | 151° |
| 2026-05-06 16:21 | 47.05647 | 10.81081 | 35799 ft | 425 kts | 151° |
| 2026-05-06 16:22 | 47.01632 | 10.85255 | 35817 ft | 426 kts | 151° |
| 2026-05-06 16:22 | 46.96773 | 10.90305 | 35863 ft | 429 kts | 151° |
| 2026-05-06 16:23 | 46.91110 | 10.96171 | 35882 ft | 429 kts | 151° |
| 2026-05-06 16:23 | 46.86236 | 11.01204 | 35900 ft | 429 kts | 151° |
| 2026-05-06 16:24 | 46.82166 | 11.05483 | 35910 ft | 433 kts | 147° |
| 2026-05-06 16:24 | 46.77980 | 11.11982 | 35884 ft | 443 kts | 137° |
| 2026-05-06 16:25 | 46.73999 | 11.18763 | 36126 ft | 444 kts | 137° |
| 2026-05-06 16:25 | 46.71955 | 11.22215 | 36382 ft | 444 kts | 137° |
| 2026-05-06 16:25 | 46.69959 | 11.25576 | 36632 ft | 445 kts | 137° |
| 2026-05-06 16:26 | 46.67912 | 11.29029 | 36866 ft | 445 kts | 137° |
| 2026-05-06 16:26 | 46.65884 | 11.32442 | 36922 ft | 446 kts | 137° |
| 2026-05-06 16:26 | 46.61846 | 11.39227 | 36897 ft | 446 kts | 137° |
| 2026-05-06 16:27 | 46.57783 | 11.46051 | 36914 ft | 447 kts | 138° |
| 2026-05-06 16:27 | 46.53684 | 11.52922 | 36919 ft | 446 kts | 138° |
| 2026-05-06 16:28 | 46.49636 | 11.59673 | 36932 ft | 446 kts | 138° |
| 2026-05-06 16:28 | 46.45552 | 11.66468 | 36935 ft | 447 kts | 138° |
| 2026-05-06 16:29 | 46.41469 | 11.73258 | 36952 ft | 447 kts | 138° |
| 2026-05-06 16:29 | 46.37381 | 11.80038 | 36944 ft | 446 kts | 138° |
| 2026-05-06 16:30 | 46.33963 | 11.85700 | 36931 ft | 446 kts | 139° |
| 2026-05-06 16:30 | 46.29206 | 11.93543 | 36943 ft | 446 kts | 139° |
| 2026-05-06 16:31 | 46.25104 | 12.00284 | 36948 ft | 446 kts | 139° |
| 2026-05-06 16:31 | 46.21001 | 12.07015 | 36926 ft | 447 kts | 139° |
| 2026-05-06 16:32 | 46.16893 | 12.13750 | 36939 ft | 448 kts | 139° |
| 2026-05-06 16:32 | 46.12776 | 12.20492 | 36938 ft | 447 kts | 139° |
| 2026-05-06 16:33 | 46.08653 | 12.27212 | 36948 ft | 448 kts | 139° |
| 2026-05-06 16:34 | 46.02455 | 12.37267 | 36931 ft | 447 kts | 139° |
| 2026-05-06 16:34 | 45.98324 | 12.43957 | 36931 ft | 447 kts | 139° |
| 2026-05-06 16:35 | 45.94214 | 12.50591 | 36937 ft | 448 kts | 139° |
| 2026-05-06 16:35 | 45.90040 | 12.57316 | 36937 ft | 448 kts | 139° |
| 2026-05-06 16:36 | 45.85901 | 12.63985 | 36928 ft | 447 kts | 139° |
| 2026-05-06 16:36 | 45.81757 | 12.70641 | 36917 ft | 447 kts | 139° |
| 2026-05-06 16:37 | 45.77605 | 12.77286 | 36915 ft | 448 kts | 139° |
| 2026-05-06 16:37 | 45.73467 | 12.83885 | 36928 ft | 449 kts | 139° |
| 2026-05-06 16:38 | 45.69258 | 12.90574 | 36923 ft | 449 kts | 140° |
| 2026-05-06 16:38 | 45.65216 | 12.97321 | 36923 ft | 452 kts | 136° |
| 2026-05-06 16:39 | 45.61360 | 13.04454 | 36895 ft | 455 kts | 134° |
| 2026-05-06 16:39 | 45.57519 | 13.11633 | 36918 ft | 455 kts | 135° |
| 2026-05-06 16:40 | 45.53614 | 13.18743 | 36929 ft | 455 kts | 135° |
| 2026-05-06 16:40 | 45.49666 | 13.25801 | 36949 ft | 455 kts | 136° |
| 2026-05-06 16:41 | 45.45719 | 13.32844 | 36941 ft | 455 kts | 136° |
| 2026-05-06 16:41 | 45.41772 | 13.39908 | 36973 ft | 457 kts | 136° |
| 2026-05-06 16:42 | 45.37814 | 13.46972 | 36965 ft | 455 kts | 136° |
| 2026-05-06 16:42 | 45.33858 | 13.54008 | 36958 ft | 456 kts | 135° |
| 2026-05-06 16:43 | 45.29899 | 13.61048 | 36974 ft | 456 kts | 136° |
| 2026-05-06 16:43 | 45.25935 | 13.68078 | 36945 ft | 456 kts | 135° |
| 2026-05-06 16:44 | 45.21956 | 13.75098 | 36959 ft | 457 kts | 135° |
| 2026-05-06 16:44 | 45.17962 | 13.82130 | 36981 ft | 458 kts | 135° |
| 2026-05-06 16:45 | 45.13967 | 13.89171 | 36992 ft | 459 kts | 135° |
| 2026-05-06 16:45 | 45.09955 | 13.96209 | 36977 ft | 459 kts | 135° |
| 2026-05-06 16:46 | 45.05942 | 14.03228 | 36989 ft | 459 kts | 135° |
| 2026-05-06 16:46 | 45.01942 | 14.10193 | 37004 ft | 459 kts | 135° |
| 2026-05-06 16:47 | 44.97920 | 14.17201 | 37008 ft | 459 kts | 135° |
| 2026-05-06 16:47 | 44.93899 | 14.24207 | 37010 ft | 459 kts | 135° |
| 2026-05-06 16:48 | 44.89869 | 14.31192 | 36994 ft | 459 kts | 135° |
| 2026-05-06 16:48 | 44.85831 | 14.38166 | 36994 ft | 459 kts | 135° |
| 2026-05-06 16:49 | 44.81795 | 14.45108 | 37013 ft | 458 kts | 135° |
| 2026-05-06 16:49 | 44.77764 | 14.52043 | 37017 ft | 457 kts | 135° |
| 2026-05-06 16:50 | 44.73739 | 14.58953 | 37012 ft | 456 kts | 135° |
| 2026-05-06 16:50 | 44.69721 | 14.65843 | 37022 ft | 455 kts | 135° |
| 2026-05-06 16:51 | 44.65704 | 14.72709 | 37025 ft | 454 kts | 135° |
| 2026-05-06 16:51 | 44.61682 | 14.79548 | 37014 ft | 454 kts | 135° |
| 2026-05-06 16:52 | 44.57663 | 14.86375 | 37009 ft | 453 kts | 135° |
| 2026-05-06 16:52 | 44.53653 | 14.93180 | 37014 ft | 452 kts | 135° |
| 2026-05-06 16:53 | 44.49643 | 14.99968 | 37013 ft | 452 kts | 135° |
| 2026-05-06 16:53 | 44.45631 | 15.06740 | 37017 ft | 452 kts | 135° |
| 2026-05-06 16:54 | 44.41616 | 15.13493 | 37013 ft | 451 kts | 135° |
| 2026-05-06 16:54 | 44.37602 | 15.20233 | 37015 ft | 450 kts | 135° |
| 2026-05-06 16:55 | 44.33596 | 15.26939 | 37010 ft | 449 kts | 135° |
| 2026-05-06 16:55 | 44.29617 | 15.33581 | 37037 ft | 448 kts | 135° |
| 2026-05-06 16:56 | 44.25617 | 15.40246 | 37040 ft | 448 kts | 135° |
| 2026-05-06 16:56 | 44.21616 | 15.46902 | 37031 ft | 448 kts | 135° |
| 2026-05-06 16:57 | 44.17616 | 15.53548 | 37034 ft | 447 kts | 135° |
| 2026-05-06 16:57 | 44.13615 | 15.60182 | 37034 ft | 447 kts | 135° |
| 2026-05-06 16:58 | 44.09608 | 15.66803 | 37020 ft | 447 kts | 135° |
| 2026-05-06 16:58 | 44.05597 | 15.73413 | 37011 ft | 447 kts | 135° |
| 2026-05-06 16:59 | 44.01580 | 15.80015 | 37004 ft | 448 kts | 135° |
| 2026-05-06 16:59 | 43.97551 | 15.86623 | 37006 ft | 448 kts | 135° |
| 2026-05-06 17:00 | 43.93519 | 15.93229 | 37008 ft | 449 kts | 135° |
| 2026-05-06 17:00 | 43.89481 | 15.99832 | 37015 ft | 449 kts | 135° |
| 2026-05-06 17:01 | 43.85401 | 16.06373 | 36996 ft | 448 kts | 137° |
| 2026-05-06 17:01 | 43.81133 | 16.12572 | 37008 ft | 447 kts | 139° |
| 2026-05-06 17:02 | 43.76716 | 16.18712 | 37017 ft | 448 kts | 139° |
| 2026-05-06 17:02 | 43.72377 | 16.24814 | 37035 ft | 448 kts | 139° |
| 2026-05-06 17:03 | 43.68034 | 16.31003 | 37036 ft | 448 kts | 139° |
| 2026-05-06 17:03 | 43.63699 | 16.37197 | 37034 ft | 448 kts | 138° |
| 2026-05-06 17:04 | 43.59349 | 16.43364 | 37031 ft | 449 kts | 139° |
| 2026-05-06 17:04 | 43.54987 | 16.49526 | 37039 ft | 449 kts | 139° |
| 2026-05-06 17:05 | 43.50627 | 16.55688 | 37046 ft | 449 kts | 139° |
| 2026-05-06 17:05 | 43.46263 | 16.61847 | 37055 ft | 449 kts | 139° |
| 2026-05-06 17:06 | 43.41897 | 16.67999 | 37056 ft | 449 kts | 139° |
| 2026-05-06 17:06 | 43.37522 | 16.74132 | 37035 ft | 449 kts | 139° |
| 2026-05-06 17:07 | 43.33137 | 16.80258 | 37050 ft | 450 kts | 138° |
| 2026-05-06 17:07 | 43.28746 | 16.86380 | 37057 ft | 450 kts | 138° |
| 2026-05-06 17:08 | 43.24347 | 16.92513 | 37071 ft | 450 kts | 138° |
| 2026-05-06 17:08 | 43.19951 | 16.98629 | 37076 ft | 450 kts | 139° |
| 2026-05-06 17:09 | 43.15548 | 17.04740 | 37072 ft | 450 kts | 139° |
| 2026-05-06 17:09 | 43.11625 | 17.11472 | 37065 ft | 456 kts | 127° |
| 2026-05-06 17:10 | 43.08690 | 17.17453 | 37068 ft | 456 kts | 127° |
| 2026-05-06 17:10 | 43.05134 | 17.24641 | 37078 ft | 456 kts | 128° |
| 2026-05-06 17:11 | 43.01563 | 17.31805 | 37078 ft | 456 kts | 127° |
| 2026-05-06 17:11 | 42.98067 | 17.39052 | 37087 ft | 457 kts | 126° |
| 2026-05-06 17:12 | 42.94644 | 17.46366 | 37074 ft | 457 kts | 126° |
| 2026-05-06 17:12 | 42.91200 | 17.53665 | 37086 ft | 458 kts | 126° |
| 2026-05-06 17:13 | 42.87720 | 17.60930 | 37085 ft | 458 kts | 126° |
| 2026-05-06 17:13 | 42.84226 | 17.68189 | 37088 ft | 458 kts | 126° |
| 2026-05-06 17:14 | 42.80741 | 17.75447 | 37078 ft | 458 kts | 126° |
| 2026-05-06 17:14 | 42.77253 | 17.82707 | 37081 ft | 458 kts | 126° |
| 2026-05-06 17:15 | 42.73758 | 17.89955 | 37092 ft | 458 kts | 126° |
| 2026-05-06 17:15 | 42.70257 | 17.97197 | 37036 ft | 457 kts | 126° |
| 2026-05-06 17:15 | 42.68507 | 18.00807 | 36464 ft | 458 kts | 126° |
| 2026-05-06 17:16 | 42.66756 | 18.04414 | 35829 ft | 459 kts | 126° |
| 2026-05-06 17:16 | 42.65018 | 18.07987 | 35203 ft | 460 kts | 126° |
| 2026-05-06 17:16 | 42.63253 | 18.11613 | 34568 ft | 461 kts | 127° |
| 2026-05-06 17:16 | 42.61484 | 18.15246 | 33902 ft | 462 kts | 127° |
| 2026-05-06 17:17 | 42.59707 | 18.18891 | 33140 ft | 463 kts | 127° |
| 2026-05-06 17:17 | 42.57930 | 18.22532 | 32541 ft | 462 kts | 127° |
| 2026-05-06 17:17 | 42.56161 | 18.26153 | 32000 ft | 459 kts | 127° |
| 2026-05-06 17:17 | 42.54396 | 18.29745 | 31457 ft | 456 kts | 127° |
| 2026-05-06 17:18 | 42.52617 | 18.33282 | 30932 ft | 453 kts | 128° |
| 2026-05-06 17:18 | 42.50824 | 18.36782 | 30395 ft | 450 kts | 128° |
| 2026-05-06 17:18 | 42.49033 | 18.40245 | 29840 ft | 448 kts | 128° |
| 2026-05-06 17:18 | 42.47247 | 18.43689 | 29264 ft | 445 kts | 128° |
| 2026-05-06 17:19 | 42.45477 | 18.47111 | 28698 ft | 442 kts | 128° |
| 2026-05-06 17:19 | 42.43714 | 18.50509 | 28178 ft | 439 kts | 128° |
| 2026-05-06 17:19 | 42.41934 | 18.53851 | 27687 ft | 436 kts | 131° |
| 2026-05-06 17:19 | 42.39912 | 18.56846 | 27220 ft | 428 kts | 141° |
| 2026-05-06 17:20 | 42.37687 | 18.59492 | 26758 ft | 425 kts | 142° |
| 2026-05-06 17:20 | 42.35478 | 18.62130 | 26311 ft | 422 kts | 142° |
| 2026-05-06 17:20 | 42.33292 | 18.64764 | 25882 ft | 420 kts | 142° |
| 2026-05-06 17:20 | 42.31125 | 18.67391 | 25470 ft | 417 kts | 142° |
| 2026-05-06 17:21 | 42.28974 | 18.70008 | 25063 ft | 415 kts | 142° |
| 2026-05-06 17:21 | 42.26829 | 18.72613 | 24665 ft | 413 kts | 142° |
| 2026-05-06 17:21 | 42.24695 | 18.75190 | 24298 ft | 410 kts | 142° |
| 2026-05-06 17:21 | 42.22574 | 18.77741 | 23931 ft | 408 kts | 142° |
| 2026-05-06 17:22 | 42.20458 | 18.80281 | 23536 ft | 407 kts | 142° |
| 2026-05-06 17:22 | 42.18349 | 18.82810 | 23104 ft | 405 kts | 141° |
| 2026-05-06 17:22 | 42.16252 | 18.85326 | 22697 ft | 402 kts | 141° |
| 2026-05-06 17:22 | 42.14174 | 18.87821 | 22296 ft | 399 kts | 141° |
| 2026-05-06 17:23 | 42.12110 | 18.90299 | 21872 ft | 395 kts | 141° |
| 2026-05-06 17:23 | 42.10064 | 18.92748 | 21443 ft | 392 kts | 141° |
| 2026-05-06 17:23 | 42.08034 | 18.95175 | 21012 ft | 389 kts | 141° |
| 2026-05-06 17:23 | 42.06019 | 18.97584 | 20578 ft | 385 kts | 141° |
| 2026-05-06 17:24 | 42.04023 | 18.99968 | 20156 ft | 382 kts | 141° |
| 2026-05-06 17:24 | 42.02042 | 19.02325 | 19721 ft | 379 kts | 141° |
| 2026-05-06 17:24 | 42.00069 | 19.04667 | 19276 ft | 377 kts | 141° |
| 2026-05-06 17:24 | 41.98107 | 19.06999 | 18849 ft | 375 kts | 141° |
| 2026-05-06 17:25 | 41.96187 | 19.09278 | 18447 ft | 372 kts | 141° |
| 2026-05-06 17:25 | 41.94254 | 19.11574 | 17984 ft | 369 kts | 141° |
| 2026-05-06 17:25 | 41.92339 | 19.13852 | 17488 ft | 367 kts | 141° |
| 2026-05-06 17:25 | 41.90419 | 19.16131 | 16865 ft | 369 kts | 141° |
| 2026-05-06 17:26 | 41.88493 | 19.18413 | 16255 ft | 370 kts | 141° |
| 2026-05-06 17:26 | 41.86560 | 19.20706 | 15661 ft | 370 kts | 141° |
| 2026-05-06 17:26 | 41.84632 | 19.22990 | 15071 ft | 370 kts | 140° |
| 2026-05-06 17:26 | 41.82701 | 19.25277 | 14496 ft | 369 kts | 140° |
| 2026-05-06 17:27 | 41.80781 | 19.27545 | 13922 ft | 369 kts | 140° |
| 2026-05-06 17:27 | 41.78860 | 19.29811 | 13291 ft | 367 kts | 140° |
| 2026-05-06 17:27 | 41.77062 | 19.32123 | 12675 ft | 367 kts | 132° |
| 2026-05-06 17:27 | 41.75431 | 19.34730 | 12217 ft | 361 kts | 131° |
| 2026-05-06 17:28 | 41.73847 | 19.37267 | 12093 ft | 351 kts | 131° |
| 2026-05-06 17:28 | 41.72318 | 19.39713 | 12114 ft | 333 kts | 131° |
| 2026-05-06 17:28 | 41.70860 | 19.42043 | 12016 ft | 321 kts | 131° |
| 2026-05-06 17:28 | 41.69449 | 19.44291 | 11807 ft | 313 kts | 131° |
| 2026-05-06 17:29 | 41.68052 | 19.46513 | 11427 ft | 311 kts | 131° |
| 2026-05-06 17:29 | 41.66658 | 19.48729 | 10976 ft | 313 kts | 131° |
| 2026-05-06 17:29 | 41.65256 | 19.50996 | 10372 ft | 320 kts | 127° |
| 2026-05-06 17:29 | 41.64239 | 19.53667 | 9746 ft | 327 kts | 108° |
| 2026-05-06 17:30 | 41.63939 | 19.56694 | 9097 ft | 333 kts | 88° |
| 2026-05-06 17:30 | 41.64152 | 19.59795 | 8456 ft | 336 kts | 85° |
| 2026-05-06 17:30 | 41.64392 | 19.62915 | 7827 ft | 338 kts | 85° |
| 2026-05-06 17:30 | 41.64484 | 19.65995 | 7202 ft | 325 kts | 100° |
| 2026-05-06 17:31 | 41.63662 | 19.68683 | 6605 ft | 308 kts | 130° |
| 2026-05-06 17:31 | 41.62017 | 19.70358 | 5969 ft | 294 kts | 161° |
| 2026-05-06 17:31 | 41.60052 | 19.70862 | 5375 ft | 284 kts | 179° |
| 2026-05-06 17:31 | 41.58165 | 19.70331 | 4775 ft | 276 kts | 202° |
| 2026-05-06 17:32 | 41.56418 | 19.69594 | 4737 ft | 257 kts | 182° |
| 2026-05-06 17:32 | 41.54682 | 19.70006 | 4414 ft | 253 kts | 162° |
| 2026-05-06 17:32 | 41.52974 | 19.70535 | 3850 ft | 252 kts | 172° |
| 2026-05-06 17:32 | 41.51253 | 19.70777 | 3538 ft | 241 kts | 175° |
| 2026-05-06 17:33 | 41.49682 | 19.70968 | 3400 ft | 212 kts | 174° |
| 2026-05-06 17:33 | 41.48319 | 19.71146 | 3310 ft | 184 kts | 174° |
| 2026-05-06 17:33 | 41.47107 | 19.71307 | 3164 ft | 165 kts | 174° |
| 2026-05-06 17:33 | 41.46049 | 19.71448 | 3084 ft | 145 kts | 174° |
| 2026-05-06 17:34 | 41.45067 | 19.71578 | 3001 ft | 146 kts | 174° |
| 2026-05-06 17:34 | 41.43916 | 19.71731 | 2935 ft | 186 kts | 174° |
| 2026-05-06 17:34 | 41.42568 | 19.71915 | 2835 ft | 201 kts | 174° |
| 2026-05-06 17:34 | 41.41170 | 19.72113 | 2761 ft | 203 kts | 174° |
| 2026-05-06 17:35 | 41.39752 | 19.72316 | 2886 ft | 207 kts | 174° |
| 2026-05-06 17:35 | 41.38307 | 19.72513 | 3218 ft | 212 kts | 174° |
| 2026-05-06 17:35 | 41.36870 | 19.72712 | 3125 ft | 205 kts | 174° |
| 2026-05-06 17:36 | 41.34043 | 19.73112 | 3009 ft | 204 kts | 174° |
| 2026-05-06 17:36 | 41.32613 | 19.73312 | 3019 ft | 212 kts | 174° |
| 2026-05-06 17:36 | 41.31136 | 19.73454 | 3004 ft | 213 kts | 185° |
| 2026-05-06 17:36 | 41.29775 | 19.72728 | 3014 ft | 216 kts | 220° |
| 2026-05-06 17:37 | 41.28865 | 19.71126 | 3012 ft | 220 kts | 238° |
| 2026-05-06 17:37 | 41.28156 | 19.69341 | 3010 ft | 222 kts | 241° |
| 2026-05-06 17:37 | 41.27462 | 19.67509 | 3014 ft | 222 kts | 241° |
| 2026-05-06 17:37 | 41.26775 | 19.65675 | 3015 ft | 222 kts | 241° |
| 2026-05-06 17:38 | 41.26090 | 19.63832 | 3016 ft | 222 kts | 241° |
| 2026-05-06 17:38 | 41.25406 | 19.61987 | 3018 ft | 223 kts | 241° |
| 2026-05-06 17:38 | 41.24802 | 19.60096 | 3017 ft | 225 kts | 255° |
| 2026-05-06 17:38 | 41.24823 | 19.58022 | 3013 ft | 229 kts | 284° |
| 2026-05-06 17:39 | 41.25631 | 19.56205 | 3018 ft | 234 kts | 316° |
| 2026-05-06 17:39 | 41.27043 | 19.55172 | 3017 ft | 235 kts | 348° |
| 2026-05-06 17:39 | 41.28673 | 19.55003 | 3017 ft | 236 kts | 358° |
| 2026-05-06 17:39 | 41.30318 | 19.54935 | 3013 ft | 236 kts | 359° |
| 2026-05-06 17:40 | 41.31963 | 19.54865 | 3016 ft | 237 kts | 358° |
| 2026-05-06 17:40 | 41.33613 | 19.54793 | 3010 ft | 237 kts | 358° |
| 2026-05-06 17:40 | 41.35263 | 19.54720 | 3015 ft | 238 kts | 358° |
| 2026-05-06 17:40 | 41.36917 | 19.54648 | 3015 ft | 237 kts | 358° |
| 2026-05-06 17:41 | 41.38571 | 19.54576 | 3015 ft | 238 kts | 358° |
| 2026-05-06 17:41 | 41.40225 | 19.54503 | 3019 ft | 238 kts | 358° |
| 2026-05-06 17:41 | 41.41877 | 19.54428 | 3016 ft | 237 kts | 358° |
| 2026-05-06 17:41 | 41.43526 | 19.54350 | 3016 ft | 237 kts | 358° |
| 2026-05-06 17:42 | 41.45176 | 19.54275 | 3014 ft | 237 kts | 358° |
| 2026-05-06 17:42 | 41.46825 | 19.54199 | 3014 ft | 237 kts | 358° |
| 2026-05-06 17:42 | 41.48477 | 19.54125 | 3015 ft | 238 kts | 358° |
| 2026-05-06 17:42 | 41.50128 | 19.54052 | 3015 ft | 237 kts | 358° |
| 2026-05-06 17:43 | 41.51780 | 19.53981 | 3015 ft | 238 kts | 358° |
| 2026-05-06 17:43 | 41.53435 | 19.53910 | 3014 ft | 237 kts | 358° |
| 2026-05-06 17:43 | 41.55083 | 19.53837 | 3021 ft | 235 kts | 358° |
| 2026-05-06 17:43 | 41.56672 | 19.53764 | 3010 ft | 225 kts | 357° |
| 2026-05-06 17:44 | 41.58171 | 19.53693 | 3014 ft | 213 kts | 358° |
| 2026-05-06 17:44 | 41.59586 | 19.53633 | 3034 ft | 188 kts | 1° |
| 2026-05-06 17:44 | 41.60808 | 19.53869 | 3000 ft | 169 kts | 18° |
| 2026-05-06 17:44 | 41.61831 | 19.54450 | 3023 ft | 158 kts | 32° |
| 2026-05-06 17:45 | 41.62692 | 19.55302 | 3018 ft | 152 kts | 46° |
| 2026-05-06 17:45 | 41.63371 | 19.56364 | 3015 ft | 149 kts | 60° |
| 2026-05-06 17:45 | 41.63846 | 19.57579 | 3020 ft | 147 kts | 73° |
| 2026-05-06 17:45 | 41.64104 | 19.58895 | 2990 ft | 146 kts | 86° |
| 2026-05-06 17:46 | 41.64204 | 19.60248 | 3016 ft | 147 kts | 88° |
| 2026-05-06 17:46 | 41.64304 | 19.61614 | 3018 ft | 148 kts | 88° |
| 2026-05-06 17:46 | 41.64406 | 19.62982 | 3015 ft | 148 kts | 88° |
| 2026-05-06 17:46 | 41.64440 | 19.64350 | 3014 ft | 146 kts | 99° |
| 2026-05-06 17:47 | 41.64237 | 19.65668 | 3014 ft | 144 kts | 112° |
| 2026-05-06 17:47 | 41.63812 | 19.66863 | 3021 ft | 142 kts | 126° |
| 2026-05-06 17:47 | 41.63202 | 19.67885 | 3010 ft | 140 kts | 139° |
| 2026-05-06 17:47 | 41.62437 | 19.68688 | 3032 ft | 148 kts | 151° |
| 2026-05-06 17:48 | 41.61385 | 19.69309 | 3025 ft | 178 kts | 165° |
| 2026-05-06 17:48 | 41.60136 | 19.69562 | 3006 ft | 184 kts | 175° |
| 2026-05-06 17:48 | 41.58891 | 19.69720 | 2998 ft | 169 kts | 174° |
| 2026-05-06 17:48 | 41.57816 | 19.69865 | 3010 ft | 146 kts | 174° |
| 2026-05-06 17:49 | 41.56838 | 19.69997 | 3010 ft | 137 kts | 174° |
| 2026-05-06 17:49 | 41.55899 | 19.70125 | 3011 ft | 134 kts | 174° |
| 2026-05-06 17:49 | 41.54977 | 19.70251 | 3006 ft | 133 kts | 174° |
| 2026-05-06 17:49 | 41.54048 | 19.70376 | 3014 ft | 134 kts | 174° |
| 2026-05-06 17:50 | 41.53116 | 19.70500 | 3015 ft | 134 kts | 174° |
| 2026-05-06 17:50 | 41.52189 | 19.70625 | 3011 ft | 133 kts | 174° |
| 2026-05-06 17:50 | 41.51268 | 19.70749 | 3004 ft | 133 kts | 174° |
| 2026-05-06 17:50 | 41.50349 | 19.70872 | 3013 ft | 133 kts | 174° |
| 2026-05-06 17:51 | 41.49431 | 19.70993 | 3005 ft | 131 kts | 174° |
| 2026-05-06 17:51 | 41.48544 | 19.71111 | 2709 ft | 128 kts | 174° |
| 2026-05-06 17:51 | 41.47646 | 19.71231 | 2322 ft | 130 kts | 174° |
| 2026-05-06 17:51 | 41.46746 | 19.71352 | 2029 ft | 129 kts | 174° |
| 2026-05-06 17:52 | 41.45839 | 19.71498 | 1826 ft | 134 kts | 172° |
| 2026-05-06 17:52 | 41.44906 | 19.71633 | 1411 ft | 136 kts | 175° |
| 2026-05-06 17:52 | 41.43951 | 19.71757 | 983 ft | 140 kts | 174° |
| 2026-05-06 17:52 | 41.42966 | 19.71888 | 486 ft | 142 kts | 176° |
| 2026-05-06 17:53 | 41.41981 | 19.72019 | 123 ft | 137 kts | 179° |
| 2026-05-06 17:53 | 41.41251 | 19.72086 | 120 ft | 75 kts | 176° |
| 2026-05-06 17:53 | 41.40790 | 19.72150 | 127 ft | 49 kts | 173° |
| 2026-05-06 17:53 | 41.40607 | 19.72192 | 127 ft | 19 kts | 159° |
| 2026-05-06 17:54 | 41.40558 | 19.72146 | 127 ft | 4 kts | 296° |
| 2026-05-06 17:54 | 41.40602 | 19.72147 | 125 ft | 13 kts | 5° |
| 2026-05-06 17:54 | 41.40675 | 19.72065 | 128 ft | 13 kts | 268° |
| 2026-05-06 17:54 | 41.40651 | 19.71936 | 128 ft | 16 kts | 255° |
| 2026-05-06 17:55 | 41.40647 | 19.71792 | 125 ft | 17 kts | 307° |
| 2026-05-06 17:55 | 41.40705 | 19.71763 | 127 ft | 1 kts | 351° |
| 2026-05-06 17:55 | 41.40725 | 19.71759 | 124 ft | 4 kts | 351° |
| 2026-05-06 17:55 | 41.40767 | 19.71750 | 125 ft | 8 kts | 351° |
| 2026-05-06 17:56 | 41.40832 | 19.71737 | 122 ft | 11 kts | 351° |
| 2026-05-06 17:56 | 41.40888 | 19.71726 | 125 ft | 13 kts | 351° |
| 2026-05-06 17:56 | 41.40991 | 19.71705 | 123 ft | 17 kts | 352° |
| 2026-05-06 17:56 | 41.41164 | 19.71681 | 120 ft | 21 kts | 354° |
| 2026-05-06 17:57 | 41.41321 | 19.71661 | 123 ft | 24 kts | 355° |
| 2026-05-06 17:57 | 41.41497 | 19.71638 | 120 ft | 27 kts | 354° |
| 2026-05-06 17:57 | 41.41684 | 19.71614 | 117 ft | 27 kts | 354° |
| 2026-05-06 17:57 | 41.41823 | 19.71596 | 117 ft | 15 kts | 355° |
| 2026-05-06 17:58 | 41.41901 | 19.71586 | 116 ft | 18 kts | 354° |
| 2026-05-06 17:58 | 41.42036 | 19.71568 | 115 ft | 21 kts | 352° |
| 2026-05-06 17:58 | 41.42152 | 19.71553 | 117 ft | 0 kts | 356° |
| 2026-05-06 17:58 | 41.42159 | 19.71553 | 117 ft | 2 kts | 355° |
| 2026-05-06 17:59 | 41.42178 | 19.71533 | 116 ft | 5 kts | 307° |
| 2026-05-06 17:59 | 41.42185 | 19.71501 | 116 ft | 1 kts | 274° |
| 2026-05-06 17:59 | 41.42185 | 19.71486 | 117 ft | 0 kts | 271° |